createdAt,value
2023-03-16T00:00:13.969Z,1.02
2023-03-16T00:03:10.538Z,1.00
2023-03-16T00:05:47.876Z,1.00
2023-03-16T00:08:24.657Z,1.00
2023-03-16T00:11:02.877Z,0.98
2023-03-16T00:13:39.326Z,0.90
2023-03-16T00:16:17.058Z,0.90
2023-03-16T00:18:53.454Z,0.90
2023-03-16T00:21:30.678Z,0.86
2023-03-16T00:24:07.903Z,0.80
2023-03-16T00:26:44.264Z,0.80
2023-03-16T00:29:22.784Z,0.78
2023-03-16T00:31:59.199Z,0.70
2023-03-16T00:34:35.395Z,0.70
2023-03-16T00:37:15.636Z,0.62
2023-03-16T00:39:52.567Z,0.60
2023-03-16T00:42:34.332Z,0.50
2023-03-16T00:45:13.954Z,0.50
2023-03-16T00:47:50.277Z,0.40
2023-03-16T00:50:27.482Z,0.40
2023-03-16T00:53:04.025Z,0.30
2023-03-16T00:55:40.314Z,0.30
2023-03-16T00:58:16.786Z,0.20
2023-03-16T01:00:54.919Z,0.20
2023-03-16T01:03:31.430Z,0.10
2023-03-16T01:06:14.278Z,0.10
2023-03-16T01:08:52.568Z,0.00
2023-03-16T01:11:28.957Z,0.00
2023-03-16T01:14:06.530Z,-0.10
2023-03-16T01:16:46.187Z,-0.10
2023-03-16T01:19:23.055Z,-0.20
2023-03-16T01:21:59.661Z,-0.20
2023-03-16T01:24:36.952Z,-0.30
2023-03-16T01:27:14.668Z,-0.30
2023-03-16T01:29:51.928Z,-0.40
2023-03-16T01:32:28.203Z,-0.40
2023-03-16T01:35:05.130Z,-0.44
2023-03-16T01:37:42.632Z,-0.50
2023-03-16T01:40:25.285Z,-0.50
2023-03-16T01:43:12.560Z,-0.60
2023-03-16T01:46:24.855Z,-0.60
2023-03-16T01:49:12.492Z,-0.70
2023-03-16T01:51:56.426Z,-0.70
2023-03-16T01:54:40.885Z,-0.76
2023-03-16T01:57:22.277Z,-0.80
2023-03-16T02:01:00.168Z,-0.80
2023-03-16T02:04:00.206Z,-0.90
2023-03-16T02:06:38.258Z,-0.90
2023-03-16T02:09:17.136Z,-1.00
2023-03-16T02:11:56.233Z,-1.00
2023-03-16T02:14:33.888Z,-1.10
2023-03-16T02:17:10.838Z,-1.10
2023-03-16T02:20:07.468Z,-1.10
2023-03-16T02:22:50.437Z,-1.20
2023-03-16T02:25:44.039Z,-1.20
2023-03-16T02:28:34.426Z,-1.20
2023-03-16T02:31:12.466Z,-1.30
2023-03-16T02:33:52.031Z,-1.30
2023-03-16T02:36:29.615Z,-1.30
2023-03-16T02:39:06.853Z,-1.38
2023-03-16T02:41:51.397Z,-1.40
2023-03-16T02:44:34.526Z,-1.40
2023-03-16T02:47:23.363Z,-1.40
2023-03-16T02:50:00.167Z,-1.40
2023-03-16T02:52:38.175Z,-1.40
2023-03-16T02:55:16.496Z,-1.44
2023-03-16T02:57:55.082Z,-1.50
2023-03-16T03:00:32.366Z,-1.50
2023-03-16T03:03:09.780Z,-1.50
2023-03-16T03:05:48.087Z,-1.60
2023-03-16T03:08:24.498Z,-1.60
2023-03-16T03:11:01.207Z,-1.70
2023-03-16T03:13:39.387Z,-1.70
2023-03-16T03:16:20.280Z,-1.80
2023-03-16T03:18:57.821Z,-1.80
2023-03-16T03:21:34.773Z,-1.80
2023-03-16T03:24:12.787Z,-1.82
2023-03-16T03:26:49.023Z,-1.90
2023-03-16T03:29:34.635Z,-1.90
2023-03-16T03:32:13.504Z,-1.90
2023-03-16T03:34:49.908Z,-1.90
2023-03-16T03:37:26.495Z,-1.90
2023-03-16T03:40:10.575Z,-1.90
2023-03-16T03:42:47.923Z,-1.90
2023-03-16T03:45:24.992Z,-1.90
2023-03-16T03:48:01.383Z,-1.90
2023-03-16T03:50:38.630Z,-1.90
2023-03-16T03:53:33.724Z,-1.90
2023-03-16T03:56:24.513Z,-1.90
2023-03-16T03:59:00.745Z,-1.90
2023-03-16T04:01:55.634Z,-1.92
2023-03-16T04:04:32.424Z,-1.96
2023-03-16T04:07:09.196Z,-2.00
2023-03-16T04:09:45.800Z,-2.00
2023-03-16T04:12:31.978Z,-2.00
2023-03-16T04:15:12.572Z,-2.02
2023-03-16T04:18:48.200Z,-2.10
2023-03-16T04:21:25.782Z,-2.10
2023-03-16T04:24:05.261Z,-2.10
2023-03-16T04:26:45.141Z,-2.10
2023-03-16T04:29:22.639Z,-2.10
2023-03-16T04:31:59.093Z,-2.18
2023-03-16T04:34:36.581Z,-2.20
2023-03-16T04:37:15.364Z,-2.20
2023-03-16T04:39:54.920Z,-2.20
2023-03-16T04:42:31.549Z,-2.30
2023-03-16T04:45:10.332Z,-2.30
2023-03-16T04:47:46.912Z,-2.32
2023-03-16T04:50:23.578Z,-2.38
2023-03-16T04:53:02.097Z,-2.40
2023-03-16T04:55:39.054Z,-2.40
2023-03-16T04:58:16.142Z,-2.40
2023-03-16T05:00:55.450Z,-2.40
2023-03-16T05:03:38.915Z,-2.40
2023-03-16T05:06:16.955Z,-2.40
2023-03-16T05:08:53.279Z,-2.40
2023-03-16T05:11:29.711Z,-2.40
2023-03-16T05:14:08.280Z,-2.32
2023-03-16T05:16:52.851Z,-2.30
2023-03-16T05:19:31.131Z,-2.30
2023-03-16T05:22:08.477Z,-2.20
2023-03-16T05:24:46.315Z,-2.20
2023-03-16T05:27:22.788Z,-2.18
2023-03-16T05:30:01.404Z,-2.10
2023-03-16T05:32:39.220Z,-2.00
2023-03-16T05:35:16.568Z,-1.92
2023-03-16T05:37:53.570Z,-1.82
2023-03-16T05:40:30.663Z,-1.76
2023-03-16T05:43:14.386Z,-1.60
2023-03-16T05:45:54.774Z,-1.40
2023-03-16T05:48:31.473Z,-1.10
2023-03-16T05:51:08.773Z,-0.74
2023-03-16T05:53:47.019Z,-0.30
2023-03-16T05:56:31.583Z,0.26
2023-03-16T05:59:08.935Z,0.84
2023-03-16T06:01:46.684Z,1.38
2023-03-16T06:04:23.797Z,1.88
2023-03-16T06:07:00.349Z,2.40
2023-03-16T06:09:38.975Z,2.92
2023-03-16T06:12:20.415Z,3.56
2023-03-16T06:14:56.816Z,4.18
2023-03-16T06:17:33.347Z,4.78
2023-03-16T06:20:18.255Z,5.30
2023-03-16T06:22:55.097Z,5.84
2023-03-16T06:25:31.633Z,6.38
2023-03-16T06:28:09.181Z,6.80
2023-03-16T06:30:46.132Z,7.18
2023-03-16T06:33:22.514Z,7.48
2023-03-16T06:36:00.119Z,7.80
2023-03-16T06:38:41.212Z,8.00
2023-03-16T06:41:36.088Z,8.36
2023-03-16T06:44:12.855Z,8.62
2023-03-16T06:46:55.317Z,8.90
2023-03-16T06:49:32.109Z,9.10
2023-03-16T06:52:10.650Z,9.30
2023-03-16T06:54:48.685Z,9.50
2023-03-16T06:57:26.174Z,9.60
2023-03-16T07:00:04.140Z,9.70
2023-03-16T07:02:41.240Z,9.82
2023-03-16T07:05:18.354Z,9.90
2023-03-16T07:08:12.762Z,9.90
2023-03-16T07:11:07.000Z,9.96
2023-03-16T07:13:45.486Z,10.10
2023-03-16T07:16:23.153Z,10.20
2023-03-16T07:19:01.809Z,10.30
2023-03-16T07:21:40.972Z,10.46
2023-03-16T07:24:27.392Z,10.60
2023-03-16T07:27:04.677Z,10.70
2023-03-16T07:29:42.798Z,10.80
2023-03-16T07:32:20.578Z,10.86
2023-03-16T07:35:00.242Z,10.90
2023-03-16T07:37:51.837Z,11.10
2023-03-16T07:40:28.922Z,11.10
2023-03-16T07:43:10.429Z,11.10
2023-03-16T07:45:56.783Z,11.12
2023-03-16T07:48:35.104Z,11.20
2023-03-16T07:51:14.747Z,11.20
2023-03-16T07:53:53.973Z,11.42
2023-03-16T07:56:48.433Z,11.54
2023-03-16T07:59:36.079Z,11.70
2023-03-16T08:02:19.362Z,11.80
2023-03-16T08:04:58.353Z,11.86
2023-03-16T08:07:35.033Z,11.90
2023-03-16T08:10:18.907Z,12.00
2023-03-16T08:13:08.826Z,12.18
2023-03-16T08:15:56.054Z,12.10
2023-03-16T08:18:38.030Z,12.02
2023-03-16T08:21:16.026Z,12.00
2023-03-16T08:23:54.629Z,12.10
2023-03-16T08:26:43.190Z,12.10
2023-03-16T08:29:21.503Z,12.00
2023-03-16T08:32:00.598Z,12.00
2023-03-16T08:34:44.476Z,12.00
2023-03-16T08:37:22.264Z,12.00
2023-03-16T08:40:01.613Z,11.86
2023-03-16T08:42:39.877Z,11.70
2023-03-16T08:45:20.141Z,11.80
2023-03-16T08:47:57.237Z,11.70
2023-03-16T08:50:34.841Z,11.46
2023-03-16T08:53:13.825Z,11.10
2023-03-16T08:55:51.963Z,11.00
2023-03-16T08:58:32.636Z,10.90
2023-03-16T09:01:11.124Z,10.60
2023-03-16T09:03:48.593Z,10.48
2023-03-16T09:06:27.764Z,10.40
2023-03-16T09:09:04.952Z,10.20
2023-03-16T09:11:44.186Z,10.00
2023-03-16T09:14:20.959Z,10.00
2023-03-16T09:16:58.763Z,9.80
2023-03-16T09:19:50.671Z,9.60
2023-03-16T09:22:30.829Z,9.50
2023-03-16T09:25:11.712Z,9.60
2023-03-16T09:27:48.894Z,9.50
2023-03-16T09:30:26.842Z,9.70
2023-03-16T09:33:05.403Z,9.90
2023-03-16T09:35:47.177Z,9.98
2023-03-16T09:38:26.561Z,9.80
2023-03-16T09:41:14.055Z,9.70
2023-03-16T09:44:29.772Z,9.80
2023-03-16T09:47:11.601Z,9.70
2023-03-16T09:49:52.983Z,9.60
2023-03-16T09:52:50.833Z,9.60
2023-03-16T09:55:36.737Z,9.70
2023-03-16T09:58:26.673Z,9.90
2023-03-16T10:01:19.154Z,10.00
2023-03-16T10:04:17.124Z,10.10
2023-03-16T10:07:06.623Z,10.20
2023-03-16T10:09:54.069Z,10.20
2023-03-16T10:12:41.604Z,10.10
2023-03-16T10:15:27.163Z,9.90
2023-03-16T10:18:15.677Z,9.60
2023-03-16T10:20:55.606Z,9.30
2023-03-16T10:23:41.582Z,9.10
2023-03-16T10:26:31.717Z,9.10
2023-03-16T10:29:17.376Z,9.30
2023-03-16T10:32:01.580Z,9.30
2023-03-16T10:34:38.843Z,9.20
2023-03-16T10:37:20.394Z,9.12
2023-03-16T10:40:00.849Z,9.00
2023-03-16T10:42:41.656Z,8.80
2023-03-16T10:45:37.773Z,8.54
2023-03-16T10:48:21.471Z,8.30
2023-03-16T10:51:05.171Z,8.40
2023-03-16T10:53:49.143Z,8.60
2023-03-16T10:56:34.100Z,8.82
2023-03-16T10:59:34.419Z,9.04
2023-03-16T11:02:25.134Z,9.30
2023-03-16T11:05:16.026Z,9.40
2023-03-16T11:08:10.750Z,9.30
2023-03-16T11:10:58.920Z,9.30
2023-03-16T11:13:45.091Z,9.20
2023-03-16T11:16:41.684Z,9.10
2023-03-16T11:19:31.854Z,8.94
2023-03-16T11:22:17.575Z,8.80
2023-03-16T11:25:04.442Z,8.70
2023-03-16T11:27:53.152Z,8.60
2023-03-16T11:30:41.310Z,8.50
2023-03-16T11:33:19.458Z,8.60
2023-03-16T11:36:20.450Z,8.80
2023-03-16T11:39:17.398Z,8.80
2023-03-16T11:42:22.007Z,8.60
2023-03-16T11:45:15.887Z,8.40
2023-03-16T11:48:30.737Z,8.30
2023-03-16T11:51:30.868Z,8.20
2023-03-16T11:54:33.698Z,8.30
2023-03-16T11:57:33.360Z,8.40
2023-03-16T12:00:28.319Z,8.40
2023-03-16T12:03:36.819Z,8.48
2023-03-16T12:06:35.336Z,8.60
2023-03-16T12:10:06.317Z,8.68
2023-03-16T12:13:07.866Z,8.70
2023-03-16T12:15:49.993Z,8.70
2023-03-16T12:18:43.753Z,8.60
2023-03-16T12:21:31.638Z,8.60
2023-03-16T12:24:17.399Z,8.70
2023-03-16T12:26:59.764Z,8.74
2023-03-16T12:29:51.882Z,8.90
2023-03-16T12:32:47.000Z,9.06
2023-03-16T12:35:42.624Z,9.10
2023-03-16T12:38:40.893Z,9.20
2023-03-16T12:41:34.340Z,9.30
2023-03-16T12:44:24.855Z,9.40
2023-03-16T12:47:15.341Z,9.40
2023-03-16T12:49:53.647Z,9.30
2023-03-16T12:52:43.107Z,9.20
2023-03-16T12:55:27.961Z,9.10
2023-03-16T12:58:12.574Z,8.94
2023-03-16T13:01:01.348Z,8.80
2023-03-16T13:03:39.552Z,8.72
2023-03-16T13:06:32.153Z,8.70
2023-03-16T13:09:12.352Z,8.70
2023-03-16T13:11:53.383Z,8.70
2023-03-16T13:14:45.911Z,8.62
2023-03-16T13:17:33.889Z,8.70
2023-03-16T13:20:32.133Z,8.70
2023-03-16T13:23:27.555Z,8.70
2023-03-16T13:26:20.036Z,8.64
2023-03-16T13:28:59.962Z,8.60
2023-03-16T13:31:44.078Z,8.44
2023-03-16T13:34:31.348Z,8.30
2023-03-16T13:37:19.728Z,8.10
2023-03-16T13:40:04.558Z,7.90
2023-03-16T13:42:47.834Z,7.80
2023-03-16T13:45:38.870Z,7.80
2023-03-16T13:48:20.131Z,7.70
2023-03-16T13:51:00.749Z,7.60
2023-03-16T13:53:44.112Z,7.50
2023-03-16T13:56:27.048Z,7.40
2023-03-16T13:59:04.243Z,7.20
2023-03-16T14:01:45.222Z,7.10
2023-03-16T14:04:24.348Z,7.00
2023-03-16T14:07:04.811Z,6.90
2023-03-16T14:09:41.683Z,6.90
2023-03-16T14:12:22.766Z,6.82
2023-03-16T14:15:01.150Z,6.80
2023-03-16T14:17:37.745Z,6.70
2023-03-16T14:20:26.117Z,6.70
2023-03-16T14:23:02.653Z,6.70
2023-03-16T14:25:39.613Z,6.70
2023-03-16T14:28:23.336Z,6.70
2023-03-16T14:31:08.877Z,6.78
2023-03-16T14:33:46.636Z,6.88
2023-03-16T14:36:24.074Z,7.00
2023-03-16T14:39:10.912Z,7.10
2023-03-16T14:41:49.951Z,7.12
2023-03-16T14:44:34.545Z,7.20
2023-03-16T14:47:23.107Z,7.30
2023-03-16T14:50:04.566Z,7.30
2023-03-16T14:52:41.747Z,7.36
2023-03-16T14:55:22.887Z,7.42
2023-03-16T14:57:59.562Z,7.50
2023-03-16T15:00:50.202Z,7.50
2023-03-16T15:03:38.090Z,7.50
2023-03-16T15:06:15.497Z,7.50
2023-03-16T15:08:52.312Z,7.50
2023-03-16T15:11:29.762Z,7.50
2023-03-16T15:14:35.580Z,7.50
2023-03-16T15:17:12.311Z,7.40
2023-03-16T15:19:50.489Z,7.40
2023-03-16T15:22:33.616Z,7.38
2023-03-16T15:25:37.116Z,7.30
2023-03-16T15:28:20.758Z,7.20
2023-03-16T15:31:00.446Z,7.10
2023-03-16T15:33:37.502Z,7.00
2023-03-16T15:36:20.583Z,6.90
2023-03-16T15:38:58.453Z,6.80
2023-03-16T15:41:46.825Z,6.74
2023-03-16T15:44:23.975Z,6.62
2023-03-16T15:47:00.800Z,6.50
2023-03-16T15:49:47.309Z,6.40
2023-03-16T15:52:34.439Z,6.30
2023-03-16T15:55:21.957Z,6.20
2023-03-16T15:58:03.772Z,6.20
2023-03-16T16:00:42.190Z,6.10
2023-03-16T16:03:19.374Z,6.00
2023-03-16T16:05:56.537Z,6.00
2023-03-16T16:08:33.015Z,5.90
2023-03-16T16:11:16.895Z,5.90
2023-03-16T16:13:54.223Z,5.90
2023-03-16T16:16:34.467Z,5.82
2023-03-16T16:19:14.156Z,5.80
2023-03-16T16:21:50.423Z,5.80
2023-03-16T16:24:26.771Z,5.70
2023-03-16T16:27:03.317Z,5.66
2023-03-16T16:29:40.184Z,5.60
2023-03-16T16:32:28.448Z,5.50
2023-03-16T16:35:10.349Z,5.42
2023-03-16T16:37:45.378Z,5.40
2023-03-16T16:40:27.236Z,5.30
2023-03-16T16:43:07.505Z,5.20
2023-03-16T16:45:43.960Z,5.20
2023-03-16T16:48:35.091Z,5.10
2023-03-16T16:51:23.357Z,5.10
2023-03-16T16:54:02.386Z,5.00
2023-03-16T16:56:40.130Z,5.00
2023-03-16T16:59:23.911Z,4.90
2023-03-16T17:02:01.959Z,4.86
2023-03-16T17:04:39.341Z,4.80
2023-03-16T17:07:17.412Z,4.76
2023-03-16T17:09:53.695Z,4.70
2023-03-16T17:12:30.129Z,4.60
2023-03-16T17:15:22.267Z,4.50
2023-03-16T17:18:07.464Z,4.50
2023-03-16T17:20:45.179Z,4.40
2023-03-16T17:23:34.684Z,4.30
2023-03-16T17:26:19.216Z,4.20
2023-03-16T17:29:02.045Z,4.10
2023-03-16T17:31:43.430Z,4.02
2023-03-16T17:34:25.526Z,3.96
2023-03-16T17:37:00.259Z,3.90
2023-03-16T17:39:38.211Z,3.80
2023-03-16T17:42:20.227Z,3.70
2023-03-16T17:44:58.074Z,3.70
2023-03-16T17:47:39.744Z,3.60
2023-03-16T17:50:29.043Z,3.50
2023-03-16T17:53:06.030Z,3.40
2023-03-16T17:55:43.961Z,3.30
2023-03-16T17:58:31.488Z,3.20
2023-03-16T18:01:11.730Z,3.10
2023-03-16T18:03:49.567Z,3.00
2023-03-16T18:06:29.812Z,2.90
2023-03-16T18:09:06.607Z,2.80
2023-03-16T18:11:46.730Z,2.70
2023-03-16T18:14:36.305Z,2.52
2023-03-16T18:17:28.906Z,2.40
2023-03-16T18:20:07.162Z,2.30
2023-03-16T18:22:44.795Z,2.20
2023-03-16T18:25:35.453Z,2.10
2023-03-16T18:28:15.245Z,1.94
2023-03-16T18:30:54.732Z,1.80
2023-03-16T18:33:35.497Z,1.70
2023-03-16T18:36:28.456Z,1.60
2023-03-16T18:39:09.068Z,1.50
2023-03-16T18:41:47.050Z,1.38
2023-03-16T18:44:27.090Z,1.30
2023-03-16T18:47:06.525Z,1.20
2023-03-16T18:49:47.353Z,1.10
2023-03-16T18:52:29.256Z,1.00
2023-03-16T18:55:14.247Z,0.90
2023-03-16T18:57:56.305Z,0.80
2023-03-16T19:00:33.608Z,0.70
2023-03-16T19:03:21.597Z,0.60
2023-03-16T19:06:01.438Z,0.50
2023-03-16T19:08:38.598Z,0.50
2023-03-16T19:11:18.194Z,0.40
2023-03-16T19:13:55.201Z,0.30
2023-03-16T19:16:32.054Z,0.22
2023-03-16T19:19:09.224Z,0.20
2023-03-16T19:21:49.080Z,0.10
2023-03-16T19:24:33.442Z,0.10
2023-03-16T19:27:21.231Z,0.00
2023-03-16T19:30:00.415Z,-0.10
2023-03-16T19:32:38.752Z,-0.20
2023-03-16T19:35:22.308Z,-0.20
2023-03-16T19:38:00.316Z,-0.30
2023-03-16T19:40:37.489Z,-0.30
2023-03-16T19:43:22.200Z,-0.40
2023-03-16T19:45:59.370Z,-0.40
2023-03-16T19:48:37.676Z,-0.40
2023-03-16T19:51:18.590Z,-0.50
2023-03-16T19:53:55.243Z,-0.52
2023-03-16T19:56:32.427Z,-0.60
2023-03-16T19:59:10.397Z,-0.64
2023-03-16T20:01:48.008Z,-0.70
2023-03-16T20:04:27.864Z,-0.72
2023-03-16T20:07:08.038Z,-0.80
2023-03-16T20:09:45.232Z,-0.88
2023-03-16T20:12:29.800Z,-0.90
2023-03-16T20:15:07.332Z,-1.00
2023-03-16T20:17:45.150Z,-1.00
2023-03-16T20:20:33.749Z,-1.00
2023-03-16T20:23:24.602Z,-1.10
2023-03-16T20:26:03.798Z,-1.10
2023-03-16T20:28:42.343Z,-1.10
2023-03-16T20:31:26.694Z,-1.10
2023-03-16T20:34:03.580Z,-1.14
2023-03-16T20:36:40.093Z,-1.20
2023-03-16T20:39:16.713Z,-1.20
2023-03-16T20:41:54.120Z,-1.20
2023-03-16T20:44:31.434Z,-1.20
2023-03-16T20:47:13.146Z,-1.20
2023-03-16T20:49:50.633Z,-1.30
2023-03-16T20:52:31.147Z,-1.30
2023-03-16T20:55:08.633Z,-1.30
2023-03-16T20:57:45.424Z,-1.30
2023-03-16T21:00:36.541Z,-1.30
2023-03-16T21:03:23.141Z,-1.40
2023-03-16T21:06:01.385Z,-1.40
2023-03-16T21:08:38.062Z,-1.40
2023-03-16T21:11:26.195Z,-1.40
2023-03-16T21:14:02.697Z,-1.50
2023-03-16T21:16:40.613Z,-1.50
2023-03-16T21:19:22.892Z,-1.50
2023-03-16T21:21:59.304Z,-1.60
2023-03-16T21:24:37.419Z,-1.60
2023-03-16T21:27:26.514Z,-1.62
2023-03-16T21:30:18.232Z,-1.70
2023-03-16T21:32:55.725Z,-1.80
2023-03-16T21:35:38.612Z,-1.80
2023-03-16T21:38:20.713Z,-1.80
2023-03-16T21:40:57.061Z,-1.80
2023-03-16T21:43:33.875Z,-1.90
2023-03-16T21:46:18.300Z,-1.90
2023-03-16T21:48:57.056Z,-1.90
2023-03-16T21:51:34.986Z,-2.00
2023-03-16T21:54:18.000Z,-2.00
2023-03-16T21:56:54.364Z,-2.00
2023-03-16T21:59:30.851Z,-2.00
2023-03-16T22:02:19.711Z,-2.04
2023-03-16T22:04:58.531Z,-2.10
2023-03-16T22:07:34.953Z,-2.10
2023-03-16T22:10:20.711Z,-2.18
2023-03-16T22:12:58.053Z,-2.20
2023-03-16T22:15:34.529Z,-2.20
2023-03-16T22:18:29.948Z,-2.20
2023-03-16T22:21:26.512Z,-2.30
2023-03-16T22:24:05.482Z,-2.30
2023-03-16T22:26:42.530Z,-2.30
2023-03-16T22:29:28.335Z,-2.30
2023-03-16T22:32:12.427Z,-2.30
2023-03-16T22:34:56.200Z,-2.38
2023-03-16T22:37:33.905Z,-2.34
2023-03-16T22:40:21.210Z,-2.40
2023-03-16T22:43:01.331Z,-2.40
2023-03-16T22:45:38.708Z,-2.40
2023-03-16T22:48:24.788Z,-2.40
2023-03-16T22:51:05.571Z,-2.44
2023-03-16T22:53:48.489Z,-2.50
2023-03-16T22:56:25.835Z,-2.50
2023-03-16T22:59:07.633Z,-2.50
2023-03-16T23:01:47.762Z,-2.56
2023-03-16T23:04:30.325Z,-2.60
2023-03-16T23:07:11.341Z,-2.60
2023-03-16T23:09:48.611Z,-2.62
2023-03-16T23:12:26.558Z,-2.66
2023-03-16T23:15:03.337Z,-2.70
2023-03-16T23:17:40.044Z,-2.70
2023-03-16T23:20:27.244Z,-2.72
2023-03-16T23:23:04.269Z,-2.80
2023-03-16T23:25:40.964Z,-2.80
2023-03-16T23:28:25.892Z,-2.80
2023-03-16T23:31:02.963Z,-2.80
2023-03-16T23:33:39.568Z,-2.80
2023-03-16T23:36:22.801Z,-2.80
2023-03-16T23:38:59.067Z,-2.84
2023-03-16T23:41:36.213Z,-2.90
2023-03-16T23:44:17.322Z,-2.90
2023-03-16T23:46:54.552Z,-2.90
2023-03-16T23:49:36.340Z,-2.98
2023-03-16T23:52:14.853Z,-3.00
2023-03-16T23:54:51.382Z,-3.00
2023-03-16T23:57:28.433Z,-3.00
